Time;durP1;ratioP1;P1;durP2;ratioP2;P2;SDS_P1;SDS_P2;PMS_P1;PMS_P2;Temp;Humidity;BMP_temperature;BMP_pressure;BME280_temperature;BME280_humidity;BME280_pressure;Samples;Min_cycle;Max_cycle;Signal;HPM_P1;HPM_P2
2021/10/04 00:00:55;;;;;;;0.20;0.20;;;;;;;;;;5025976;28;20049;-54
2021/10/04 00:03:21;;;;;;;0.30;0.30;;;;;;;;;;5025817;28;20033;-55
2021/10/04 00:05:47;;;;;;;0.30;0.20;;;;;;;;;;5026619;28;20092;-55
2021/10/04 00:08:13;;;;;;;0.20;0.20;;;;;;;;;;5026608;28;20112;-52
2021/10/04 00:10:39;;;;;;;0.20;0.20;;;;;;;;;;5049631;28;20055;-54
2021/10/04 00:13:05;;;;;;;0.30;0.30;;;;;;;;;;5050075;28;20021;-55
2021/10/04 00:15:32;;;;;;;0.30;0.30;;;;;;;;;;5049844;28;20393;-54
2021/10/04 00:17:59;;;;;;;0.20;0.20;;;;;;;;;;5049609;28;20664;-56
2021/10/04 00:20:26;;;;;;;0.20;0.20;;;;;;;;;;5030267;28;20044;-54
2021/10/04 00:22:53;;;;;;;1.00;0.30;;;;;;;;;;5029928;28;20042;-56
2021/10/04 00:25:19;;;;;;;0.30;0.30;;;;;;;;;;5030342;28;20025;-55
2021/10/04 00:27:46;;;;;;;0.22;0.22;;;;;;;;;;5034819;28;20025;-55
2021/10/04 00:30:12;;;;;;;0.30;0.30;;;;;;;;;;5032348;28;20039;-56
2021/10/04 00:32:42;;;;;;;0.20;0.20;;;;;;;;;;5046919;28;20025;-55
2021/10/04 00:35:08;;;;;;;0.30;0.28;;;;;;;;;;5049514;28;20438;-55
2021/10/04 00:37:34;;;;;;;0.40;0.25;;;;;;;;;;5040417;28;20515;-56
2021/10/04 00:40:00;;;;;;;0.17;0.17;;;;;;;;;;5043249;28;20025;-56
2021/10/04 00:42:27;;;;;;;0.40;0.40;;;;;;;;;;5049300;28;20048;-54
2021/10/04 00:44:53;;;;;;;0.90;0.30;;;;;;;;;;5049542;28;20423;-56
2021/10/04 00:47:20;;;;;;;0.30;0.30;;;;;;;;;;5050005;28;20027;-55
2021/10/04 00:49:46;;;;;;;0.30;0.30;;;;;;;;;;5036312;28;20537;-55
2021/10/04 00:52:12;;;;;;;0.20;0.20;;;;;;;;;;5029417;28;20025;-56
2021/10/04 00:54:39;;;;;;;0.30;0.28;;;;;;;;;;5029295;28;20033;-56
2021/10/04 00:57:05;;;;;;;0.30;0.30;;;;;;;;;;5029232;28;20030;-56
2021/10/04 00:59:32;;;;;;;2.45;0.40;;;;;;;;;;5028570;28;20119;-55
2021/10/04 01:01:58;;;;;;;0.22;0.22;;;;;;;;;;5028990;28;20043;-56
2021/10/04 01:04:27;;;;;;;0.10;0.10;;;;;;;;;;5028667;28;20031;-55
2021/10/04 01:06:53;;;;;;;0.22;0.22;;;;;;;;;;5029043;28;20025;-51
2021/10/04 01:09:20;;;;;;;0.30;0.30;;;;;;;;;;5028960;28;20112;-55
2021/10/04 01:11:46;;;;;;;0.40;0.40;;;;;;;;;;5029385;28;20017;-54
2021/10/04 01:14:12;;;;;;;0.20;0.20;;;;;;;;;;5029880;28;20049;-55
2021/10/04 01:16:38;;;;;;;0.30;0.30;;;;;;;;;;5028467;28;20033;-56
2021/10/04 01:19:04;;;;;;;0.30;0.30;;;;;;;;;;5028622;28;20033;-56
2021/10/04 01:21:31;;;;;;;0.30;0.30;;;;;;;;;;5027259;28;20027;-55
2021/10/04 01:23:57;;;;;;;0.13;0.13;;;;;;;;;;5038118;28;20037;-54
2021/10/04 01:26:24;;;;;;;0.20;0.20;;;;;;;;;;5048568;28;20025;-54
2021/10/04 01:28:51;;;;;;;0.22;0.22;;;;;;;;;;5046695;28;20051;-54
2021/10/04 01:31:22;;;;;;;0.20;0.20;;;;;;;;;;5029246;28;20079;-55
2021/10/04 01:33:49;;;;;;;0.40;0.40;;;;;;;;;;5043385;28;20531;-55
2021/10/04 01:36:16;;;;;;;0.40;0.30;;;;;;;;;;5048814;28;20031;-55
2021/10/04 01:38:42;;;;;;;0.20;0.20;;;;;;;;;;5048348;28;20112;-53
2021/10/04 01:41:08;;;;;;;0.20;0.20;;;;;;;;;;5048536;28;20033;-54
2021/10/04 01:43:34;;;;;;;0.30;0.30;;;;;;;;;;5034352;28;20034;-54
2021/10/04 01:46:00;;;;;;;0.30;0.30;;;;;;;;;;5027936;28;20108;-55
2021/10/04 01:48:27;;;;;;;0.50;0.30;;;;;;;;;;5026974;28;20025;-54
2021/10/04 01:50:55;;;;;;;0.20;0.20;;;;;;;;;;5028367;28;20079;-54
2021/10/04 01:53:21;;;;;;;0.30;0.30;;;;;;;;;;5028650;28;20037;-54
2021/10/04 01:55:47;;;;;;;0.20;0.20;;;;;;;;;;5028556;28;20033;-55
2021/10/04 01:58:13;;;;;;;0.20;0.20;;;;;;;;;;5028046;28;20029;-54
2021/10/04 02:00:39;;;;;;;0.20;0.20;;;;;;;;;;5027407;28;20040;-54
2021/10/04 02:03:05;;;;;;;0.30;0.30;;;;;;;;;;5027634;28;20021;-54
2021/10/04 02:05:32;;;;;;;0.30;0.30;;;;;;;;;;5027481;28;20033;-55
2021/10/04 02:07:59;;;;;;;0.50;0.30;;;;;;;;;;5027775;28;20057;-54
2021/10/04 02:10:27;;;;;;;0.38;0.38;;;;;;;;;;5026665;28;20030;-55
2021/10/04 02:12:54;;;;;;;0.35;0.30;;;;;;;;;;5039422;28;20029;-55
2021/10/04 02:15:21;;;;;;;0.22;0.22;;;;;;;;;;5047449;28;20036;-55
2021/10/04 02:17:47;;;;;;;0.32;0.30;;;;;;;;;;5036990;28;20041;-54
2021/10/04 02:20:17;;;;;;;1.75;0.40;;;;;;;;;;5027749;28;20087;-55
2021/10/04 02:22:43;;;;;;;0.30;0.30;;;;;;;;;;5027801;28;20037;-55
2021/10/04 02:25:10;;;;;;;0.30;0.30;;;;;;;;;;5027421;28;20029;-54
2021/10/04 02:27:36;;;;;;;0.32;0.30;;;;;;;;;;5027268;28;20029;-54
2021/10/04 02:30:05;;;;;;;0.20;0.20;;;;;;;;;;5026844;28;20049;-55
2021/10/04 02:32:31;;;;;;;0.55;0.40;;;;;;;;;;5026739;28;20476;-56
2021/10/04 02:34:57;;;;;;;0.30;0.30;;;;;;;;;;5027418;28;20025;-56
2021/10/04 02:37:23;;;;;;;0.20;0.20;;;;;;;;;;5027562;28;20519;-56
2021/10/04 02:39:49;;;;;;;0.45;0.35;;;;;;;;;;5035306;28;20021;-55
2021/10/04 02:42:15;;;;;;;0.30;0.30;;;;;;;;;;5047690;28;20042;-56
2021/10/04 02:44:41;;;;;;;0.85;0.30;;;;;;;;;;5046487;28;20033;-56
2021/10/04 02:47:07;;;;;;;0.30;0.30;;;;;;;;;;5046767;28;20571;-56
2021/10/04 02:49:33;;;;;;;0.43;0.30;;;;;;;;;;5034336;28;20025;-56
2021/10/04 02:51:59;;;;;;;0.28;0.28;;;;;;;;;;5025860;28;20385;-55
2021/10/04 02:54:26;;;;;;;0.43;0.40;;;;;;;;;;5026380;28;20033;-54
2021/10/04 02:56:52;;;;;;;0.32;0.30;;;;;;;;;;5042365;28;20025;-54
2021/10/04 02:59:18;;;;;;;0.22;0.22;;;;;;;;;;5035585;28;20029;-51
2021/10/04 03:01:44;;;;;;;0.43;0.35;;;;;;;;;;5046777;28;20467;-55
2021/10/04 03:04:10;;;;;;;0.30;0.30;;;;;;;;;;5031262;28;20029;-56
2021/10/04 03:06:36;;;;;;;0.38;0.35;;;;;;;;;;5026263;28;20025;-54
2021/10/04 03:09:03;;;;;;;0.30;0.30;;;;;;;;;;5026870;28;20033;-54
2021/10/04 03:11:29;;;;;;;0.40;0.40;;;;;;;;;;5026465;28;20028;-55
2021/10/04 03:13:55;;;;;;;0.30;0.30;;;;;;;;;;5026149;28;20029;-55
2021/10/04 03:16:21;;;;;;;0.35;0.35;;;;;;;;;;5026477;28;20034;-56
2021/10/04 03:18:47;;;;;;;0.28;0.28;;;;;;;;;;5027166;28;20432;-56
2021/10/04 03:21:13;;;;;;;1.17;0.30;;;;;;;;;;5027183;28;20061;-56
2021/10/04 03:23:39;;;;;;;0.20;0.20;;;;;;;;;;5025752;28;20476;-56
2021/10/04 03:26:05;;;;;;;0.20;0.20;;;;;;;;;;5024966;28;20450;-56
2021/10/04 03:28:31;;;;;;;0.20;0.20;;;;;;;;;;5026196;28;20370;-56
2021/10/04 03:30:57;;;;;;;0.20;0.20;;;;;;;;;;5026199;28;20396;-55
2021/10/04 03:33:23;;;;;;;0.25;0.25;;;;;;;;;;5026863;28;20083;-54
2021/10/04 03:35:49;;;;;;;0.20;0.20;;;;;;;;;;5038281;28;20025;-54
2021/10/04 03:38:15;;;;;;;0.30;0.30;;;;;;;;;;5046895;28;20104;-56
2021/10/04 03:40:41;;;;;;;0.30;0.30;;;;;;;;;;5046155;28;20025;-55
2021/10/04 03:43:07;;;;;;;0.20;0.20;;;;;;;;;;5036779;28;20026;-55
2021/10/04 03:45:34;;;;;;;0.30;0.30;;;;;;;;;;5045398;28;20095;-54
2021/10/04 03:48:00;;;;;;;0.30;0.30;;;;;;;;;;5043000;28;20021;-54
2021/10/04 03:50:26;;;;;;;0.32;0.28;;;;;;;;;;5050419;28;20028;-56
2021/10/04 03:52:52;;;;;;;0.20;0.20;;;;;;;;;;5036420;28;20037;-56
2021/10/04 03:55:18;;;;;;;0.30;0.30;;;;;;;;;;5030908;28;20025;-55
2021/10/04 03:57:44;;;;;;;0.30;0.20;;;;;;;;;;5030501;28;20029;-54
2021/10/04 04:00:13;;;;;;;0.60;0.38;;;;;;;;;;5029587;28;20466;-56
2021/10/04 04:02:39;;;;;;;0.30;0.30;;;;;;;;;;5029441;28;20520;-54
2021/10/04 04:05:06;;;;;;;0.45;0.30;;;;;;;;;;5029919;28;20029;-54
2021/10/04 04:07:32;;;;;;;0.30;0.30;;;;;;;;;;5029956;28;20074;-52
2021/10/04 04:09:58;;;;;;;0.25;0.25;;;;;;;;;;5030164;28;20404;-54
2021/10/04 04:12:25;;;;;;;0.20;0.20;;;;;;;;;;5029410;28;20032;-56
2021/10/04 04:14:51;;;;;;;0.20;0.20;;;;;;;;;;5030336;28;20048;-55
2021/10/04 04:17:17;;;;;;;0.80;0.25;;;;;;;;;;5030175;28;20087;-55
2021/10/04 04:19:43;;;;;;;0.20;0.20;;;;;;;;;;5029941;28;20458;-56
2021/10/04 04:22:09;;;;;;;0.82;0.20;;;;;;;;;;5029625;28;20029;-56
2021/10/04 04:24:35;;;;;;;0.30;0.30;;;;;;;;;;5029456;28;20033;-55
2021/10/04 04:27:04;;;;;;;0.95;0.20;;;;;;;;;;5029770;28;20512;-57
2021/10/04 04:29:30;;;;;;;1.20;0.30;;;;;;;;;;5029691;28;20032;-55
2021/10/04 04:31:57;;;;;;;0.20;0.20;;;;;;;;;;5029178;28;20022;-55
2021/10/04 04:34:23;;;;;;;0.28;0.28;;;;;;;;;;5029206;28;20041;-55
2021/10/04 04:36:49;;;;;;;0.30;0.30;;;;;;;;;;5029658;28;20456;-54
2021/10/04 04:39:15;;;;;;;0.20;0.20;;;;;;;;;;5034308;28;20538;-54
2021/10/04 04:41:41;;;;;;;0.22;0.22;;;;;;;;;;5048869;28;20401;-51
2021/10/04 04:44:07;;;;;;;0.22;0.22;;;;;;;;;;5033380;28;20578;-55
2021/10/04 04:46:33;;;;;;;0.20;0.20;;;;;;;;;;5031355;28;20704;-55
2021/10/04 04:48:59;;;;;;;0.20;0.20;;;;;;;;;;5033411;28;20021;-54
2021/10/04 04:51:25;;;;;;;0.28;0.28;;;;;;;;;;5037497;28;20120;-55
2021/10/04 04:53:51;;;;;;;0.38;0.30;;;;;;;;;;5041763;28;20033;-55
2021/10/04 04:56:17;;;;;;;0.28;0.28;;;;;;;;;;5047209;28;20098;-54
2021/10/04 04:58:43;;;;;;;0.20;0.20;;;;;;;;;;5049171;28;20041;-56
2021/10/04 05:01:09;;;;;;;0.25;0.25;;;;;;;;;;5048459;28;20056;-55
2021/10/04 05:03:35;;;;;;;0.20;0.20;;;;;;;;;;5043664;28;20499;-55
2021/10/04 05:06:01;;;;;;;0.30;0.30;;;;;;;;;;5029053;28;20025;-55
2021/10/04 05:08:28;;;;;;;0.22;0.22;;;;;;;;;;5028432;28;20474;-57
2021/10/04 05:10:54;;;;;;;0.43;0.30;;;;;;;;;;5028904;28;20032;-57
2021/10/04 05:13:20;;;;;;;0.30;0.30;;;;;;;;;;5029505;28;20030;-57
2021/10/04 05:15:46;;;;;;;0.30;0.20;;;;;;;;;;5034387;28;20033;-57
2021/10/04 05:18:12;;;;;;;0.30;0.20;;;;;;;;;;5030688;28;20033;-57
2021/10/04 05:20:38;;;;;;;0.20;0.20;;;;;;;;;;5028514;28;20326;-57
2021/10/04 05:23:04;;;;;;;0.20;0.20;;;;;;;;;;5028355;28;20037;-57
2021/10/04 05:25:30;;;;;;;0.10;0.10;;;;;;;;;;5038020;28;20021;-56
2021/10/04 05:27:56;;;;;;;0.20;0.20;;;;;;;;;;5048628;28;20074;-57
2021/10/04 05:30:22;;;;;;;0.10;0.10;;;;;;;;;;5030582;28;20447;-58
2021/10/04 05:32:49;;;;;;;0.10;0.10;;;;;;;;;;5028622;28;20040;-57
2021/10/04 05:35:16;;;;;;;0.22;0.22;;;;;;;;;;5029072;28;20029;-57
2021/10/04 05:37:42;;;;;;;0.17;0.17;;;;;;;;;;5027965;28;20029;-55
2021/10/04 05:40:08;;;;;;;0.20;0.20;;;;;;;;;;5028698;28;20117;-57
2021/10/04 05:42:34;;;;;;;0.20;0.20;;;;;;;;;;5027751;28;20064;-57
2021/10/04 05:45:01;;;;;;;0.20;0.20;;;;;;;;;;5028369;28;20079;-57
2021/10/04 05:47:27;;;;;;;0.30;0.30;;;;;;;;;;5031555;28;20017;-57
2021/10/04 05:49:54;;;;;;;0.40;0.30;;;;;;;;;;5039512;28;20029;-58
2021/10/04 05:52:20;;;;;;;0.35;0.35;;;;;;;;;;5047791;28;20024;-58
2021/10/04 05:54:46;;;;;;;1.75;1.02;;;;;;;;;;5030882;28;20030;-58
2021/10/04 05:57:12;;;;;;;8.98;4.53;;;;;;;;;;5029155;28;20730;-57
2021/10/04 05:59:38;;;;;;;13.93;6.35;;;;;;;;;;5028683;28;20259;-58
2021/10/04 06:02:04;;;;;;;15.73;7.43;;;;;;;;;;5027149;28;20456;-58
2021/10/04 06:04:30;;;;;;;11.43;6.30;;;;;;;;;;5027654;28;20029;-58
2021/10/04 06:06:56;;;;;;;9.95;5.53;;;;;;;;;;5027111;28;20017;-58
2021/10/04 06:09:22;;;;;;;7.38;4.35;;;;;;;;;;5028071;28;20496;-58
2021/10/04 06:11:48;;;;;;;6.90;4.47;;;;;;;;;;5043259;28;20593;-58
2021/10/04 06:14:14;;;;;;;7.00;3.88;;;;;;;;;;5028496;28;20033;-58
2021/10/04 06:16:40;;;;;;;6.47;4.10;;;;;;;;;;5027556;28;20025;-58
2021/10/04 06:19:07;;;;;;;4.80;2.80;;;;;;;;;;5027287;28;20057;-58
2021/10/04 06:21:34;;;;;;;3.47;2.60;;;;;;;;;;5027144;28;20030;-58
2021/10/04 06:24:00;;;;;;;5.38;3.28;;;;;;;;;;5027839;28;20030;-59
2021/10/04 06:26:26;;;;;;;3.22;2.50;;;;;;;;;;5027429;28;20479;-58
2021/10/04 06:28:52;;;;;;;3.22;2.17;;;;;;;;;;5027528;28;20022;-58
2021/10/04 06:31:18;;;;;;;3.15;1.85;;;;;;;;;;5027536;28;20044;-58
2021/10/04 06:33:44;;;;;;;1.50;1.40;;;;;;;;;;5043019;28;20025;-58
2021/10/04 06:36:10;;;;;;;1.73;1.35;;;;;;;;;;5026390;28;20025;-58
2021/10/04 06:38:36;;;;;;;1.73;1.20;;;;;;;;;;5041107;28;20028;-58
2021/10/04 06:41:02;;;;;;;1.02;0.90;;;;;;;;;;5028685;28;20032;-59
2021/10/04 06:43:30;;;;;;;0.80;0.80;;;;;;;;;;5025521;28;20065;-58
2021/10/04 06:45:56;;;;;;;1.88;1.02;;;;;;;;;;5025740;28;20030;-58
2021/10/04 06:48:23;;;;;;;1.65;1.00;;;;;;;;;;5025764;28;20022;-58
2021/10/04 06:50:49;;;;;;;0.90;0.90;;;;;;;;;;5025232;28;20317;-58
2021/10/04 06:53:15;;;;;;;1.17;1.08;;;;;;;;;;5026649;28;20045;-58
2021/10/04 06:55:41;;;;;;;0.93;0.90;;;;;;;;;;5023842;28;20510;-58
2021/10/04 06:58:08;;;;;;;1.10;1.00;;;;;;;;;;5025539;28;20088;-58
2021/10/04 07:00:34;;;;;;;1.35;1.00;;;;;;;;;;5024510;28;20033;-58
2021/10/04 07:03:00;;;;;;;1.67;1.00;;;;;;;;;;5033682;28;20036;-58
2021/10/04 07:05:27;;;;;;;1.05;0.95;;;;;;;;;;5033237;28;20020;-58
2021/10/04 07:07:56;;;;;;;0.90;0.82;;;;;;;;;;5028795;28;20036;-58
2021/10/04 07:10:22;;;;;;;0.85;0.85;;;;;;;;;;5026670;28;20018;-59
2021/10/04 07:12:48;;;;;;;0.70;0.60;;;;;;;;;;5041224;28;20028;-58
2021/10/04 07:15:14;;;;;;;0.85;0.85;;;;;;;;;;5027736;28;20025;-58
2021/10/04 07:17:40;;;;;;;0.98;0.90;;;;;;;;;;5025782;28;20029;-59
2021/10/04 07:20:07;;;;;;;1.75;1.13;;;;;;;;;;5026209;28;20033;-59
2021/10/04 07:22:33;;;;;;;1.15;0.90;;;;;;;;;;5029533;28;20550;-59
2021/10/04 07:24:59;;;;;;;1.15;0.80;;;;;;;;;;5037597;28;20032;-60
2021/10/04 07:27:25;;;;;;;1.00;0.90;;;;;;;;;;5046182;28;20457;-60
2021/10/04 07:29:52;;;;;;;0.82;0.75;;;;;;;;;;5033369;28;20013;-60
2021/10/04 07:32:18;;;;;;;0.80;0.77;;;;;;;;;;5027630;28;20029;-60
2021/10/04 07:34:44;;;;;;;0.82;0.70;;;;;;;;;;5027026;28;20641;-60
2021/10/04 07:37:10;;;;;;;1.00;0.70;;;;;;;;;;5029928;28;20029;-60
2021/10/04 07:39:37;;;;;;;0.75;0.60;;;;;;;;;;5048123;28;20033;-59
2021/10/04 07:42:03;;;;;;;0.88;0.80;;;;;;;;;;5040877;28;20555;-60
2021/10/04 07:44:29;;;;;;;0.77;0.60;;;;;;;;;;5033119;28;20578;-60
2021/10/04 07:46:57;;;;;;;0.50;0.50;;;;;;;;;;5043480;28;20029;-60
2021/10/04 07:49:23;;;;;;;0.98;0.60;;;;;;;;;;5044922;28;20466;-60
2021/10/04 07:51:49;;;;;;;0.57;0.50;;;;;;;;;;5033290;28;20083;-60
2021/10/04 07:54:16;;;;;;;0.63;0.63;;;;;;;;;;5038876;28;20115;-60
2021/10/04 07:56:42;;;;;;;0.40;0.30;;;;;;;;;;5031761;28;20103;-60
2021/10/04 07:59:08;;;;;;;0.40;0.40;;;;;;;;;;5039304;28;20060;-59
2021/10/04 08:01:35;;;;;;;0.32;0.32;;;;;;;;;;5038427;28;20078;-60
2021/10/04 08:04:01;;;;;;;0.40;0.40;;;;;;;;;;5042865;28;20033;-60
2021/10/04 08:06:27;;;;;;;0.40;0.40;;;;;;;;;;5037257;28;20029;-59
2021/10/04 08:08:54;;;;;;;0.32;0.32;;;;;;;;;;5026463;28;20079;-60
2021/10/04 08:11:20;;;;;;;0.47;0.47;;;;;;;;;;5044791;28;20093;-59
2021/10/04 08:13:49;;;;;;;0.85;0.60;;;;;;;;;;5036568;28;20022;-60
2021/10/04 08:16:16;;;;;;;1.10;0.90;;;;;;;;;;5033267;28;20079;-60
2021/10/04 08:18:42;;;;;;;1.17;1.08;;;;;;;;;;5037195;28;20079;-59
2021/10/04 08:21:08;;;;;;;1.20;1.00;;;;;;;;;;5043336;28;21054;-60
2021/10/04 08:23:37;;;;;;;2.38;1.73;;;;;;;;;;5035798;28;20017;-59
2021/10/04 08:26:04;;;;;;;2.72;1.92;;;;;;;;;;5043476;28;20539;-59
2021/10/04 08:28:30;;;;;;;1.90;1.33;;;;;;;;;;5042693;28;20361;-59
2021/10/04 08:30:56;;;;;;;1.75;1.20;;;;;;;;;;5031295;28;20053;-59
2021/10/04 08:33:22;;;;;;;1.10;0.93;;;;;;;;;;5048534;28;20522;-59
2021/10/04 08:35:49;;;;;;;1.05;0.70;;;;;;;;;;5041802;28;20106;-59
2021/10/04 08:38:15;;;;;;;0.80;0.70;;;;;;;;;;5055416;28;20029;-59
2021/10/04 08:40:41;;;;;;;0.45;0.45;;;;;;;;;;5030147;28;20087;-59
2021/10/04 08:43:07;;;;;;;0.57;0.57;;;;;;;;;;5030236;28;20029;-60
2021/10/04 08:45:33;;;;;;;0.85;0.50;;;;;;;;;;5032291;28;20443;-60
2021/10/04 08:48:02;;;;;;;0.38;0.38;;;;;;;;;;5050156;28;20021;-60
2021/10/04 08:50:30;;;;;;;0.80;0.40;;;;;;;;;;5049720;28;20028;-59
2021/10/04 08:52:57;;;;;;;0.30;0.30;;;;;;;;;;5049932;28;20021;-60
2021/10/04 08:55:23;;;;;;;0.85;0.68;;;;;;;;;;5049659;28;20484;-61
2021/10/04 08:57:49;;;;;;;0.50;0.50;;;;;;;;;;5049900;28;20123;-61
2021/10/04 09:00:16;;;;;;;0.52;0.50;;;;;;;;;;5049558;28;20471;-61
2021/10/04 09:02:42;;;;;;;0.50;0.50;;;;;;;;;;5049538;28;20027;-61
2021/10/04 09:05:13;;;;;;;0.55;0.55;;;;;;;;;;5039215;28;20035;-61
2021/10/04 09:07:42;;;;;;;0.52;0.52;;;;;;;;;;5029480;28;20045;-60
2021/10/04 09:10:09;;;;;;;0.77;0.77;;;;;;;;;;5057272;28;20467;-60
2021/10/04 09:12:44;;;;;;;2.58;0.55;;;;;;;;;;5067501;28;20024;-61
2021/10/04 09:15:29;;;;;;;0.57;0.50;;;;;;;;;;5049473;28;20040;-61
2021/10/04 09:17:56;;;;;;;0.43;0.43;;;;;;;;;;5032973;28;20032;-60
2021/10/04 09:20:23;;;;;;;0.40;0.40;;;;;;;;;;5034652;28;20556;-60
2021/10/04 09:22:50;;;;;;;0.57;0.55;;;;;;;;;;5030620;28;20056;-60
2021/10/04 09:25:16;;;;;;;0.50;0.50;;;;;;;;;;5039898;28;20040;-61
2021/10/04 09:27:47;;;;;;;0.50;0.50;;;;;;;;;;5028774;28;20280;-58
2021/10/04 09:30:15;;;;;;;0.57;0.57;;;;;;;;;;5046241;28;20032;-60
2021/10/04 09:32:47;;;;;;;0.65;0.57;;;;;;;;;;5047565;28;20523;-60
2021/10/04 09:35:20;;;;;;;0.60;0.60;;;;;;;;;;5049067;28;20501;-60
2021/10/04 09:37:49;;;;;;;0.57;0.57;;;;;;;;;;5028626;28;20467;-60
2021/10/04 09:40:34;;;;;;;0.60;0.60;;;;;;;;;;5048479;28;20037;-60
2021/10/04 09:43:03;;;;;;;0.82;0.60;;;;;;;;;;5036768;28;20026;-60
2021/10/04 09:45:29;;;;;;;0.50;0.40;;;;;;;;;;5045559;28;20404;-60
2021/10/04 09:47:55;;;;;;;2.38;0.55;;;;;;;;;;5052958;28;20024;-60
2021/10/04 09:50:31;;;;;;;0.65;0.40;;;;;;;;;;5048217;28;20033;-60
2021/10/04 09:52:57;;;;;;;0.30;0.30;;;;;;;;;;5047566;28;20074;-60
2021/10/04 09:55:32;;;;;;;0.30;0.30;;;;;;;;;;5040526;28;20159;-60
2021/10/04 09:57:59;;;;;;;;;;;;;;;;;;5028278;28;20098;-60
2021/10/04 10:00:26;;;;;;;0.75;0.40;;;;;;;;;;5026822;28;19909;-60
2021/10/04 10:02:55;;;;;;;0.40;0.40;;;;;;;;;;5032702;28;20052;-60
2021/10/04 10:05:25;;;;;;;0.32;0.32;;;;;;;;;;5047621;28;20028;-60
2021/10/04 10:07:51;;;;;;;0.65;0.43;;;;;;;;;;5037657;28;20025;-60
2021/10/04 10:10:18;;;;;;;0.77;0.50;;;;;;;;;;5040072;28;20821;-60
2021/10/04 10:12:44;;;;;;;0.35;0.35;;;;;;;;;;5053434;28;20044;-60
2021/10/04 10:15:21;;;;;;;0.70;0.70;;;;;;;;;;5045748;28;20037;-60
2021/10/04 10:17:50;;;;;;;0.40;0.40;;;;;;;;;;5027665;28;20033;-60
2021/10/04 10:20:17;;;;;;;0.50;0.50;;;;;;;;;;5027696;28;20028;-60
2021/10/04 10:22:47;;;;;;;0.60;0.60;;;;;;;;;;5032808;28;20464;-60
2021/10/04 10:25:26;;;;;;;0.40;0.40;;;;;;;;;;5045518;28;20516;-60
2021/10/04 10:27:52;;;;;;;0.52;0.52;;;;;;;;;;5037087;28;20025;-60
2021/10/04 10:30:19;;;;;;;0.40;0.40;;;;;;;;;;5038315;28;20087;-60
2021/10/04 10:32:46;;;;;;;0.85;0.50;;;;;;;;;;5047723;28;20556;-60
2021/10/04 10:35:12;;;;;;;0.70;0.60;;;;;;;;;;5043979;28;20033;-60
2021/10/04 10:37:51;;;;;;;0.50;0.50;;;;;;;;;;5041029;28;20061;-60
2021/10/04 10:40:22;;;;;;;0.52;0.50;;;;;;;;;;5038986;28;20087;-59
2021/10/04 10:43:01;;;;;;;0.40;0.40;;;;;;;;;;5027505;28;20025;-59
2021/10/04 10:45:37;;;;;;;0.32;0.32;;;;;;;;;;5026254;28;20037;-60
2021/10/04 10:48:04;;;;;;;0.38;0.38;;;;;;;;;;5040744;28;20040;-59
2021/10/04 10:50:31;;;;;;;0.40;0.40;;;;;;;;;;5062350;28;20596;-60
2021/10/04 10:52:57;;;;;;;0.30;0.30;;;;;;;;;;5042209;28;20029;-59
2021/10/04 10:55:23;;;;;;;0.30;0.30;;;;;;;;;;5042292;28;20037;-59
2021/10/04 10:57:52;;;;;;;0.40;0.40;;;;;;;;;;5030845;28;20026;-60
2021/10/04 11:00:22;;;;;;;0.45;0.45;;;;;;;;;;5036950;28;20037;-60
2021/10/04 11:02:49;;;;;;;0.40;0.40;;;;;;;;;;5047251;28;20028;-60
2021/10/04 11:05:34;;;;;;;0.63;0.63;;;;;;;;;;5032517;28;20037;-60
2021/10/04 11:08:00;;;;;;;;;;;;;;;;;;5035827;28;20025;-60
2021/10/04 11:10:26;;;;;;;0.43;0.38;;;;;;;;;;5035036;28;19916;-61
2021/10/04 11:13:08;;;;;;;0.50;0.50;;;;;;;;;;5032533;28;20029;-60
2021/10/04 11:15:34;;;;;;;0.43;0.43;;;;;;;;;;5025967;28;20022;-60
2021/10/04 11:18:00;;;;;;;0.90;0.60;;;;;;;;;;5033162;28;20029;-60
2021/10/04 11:20:27;;;;;;;0.40;0.40;;;;;;;;;;5029716;28;20037;-60
2021/10/04 11:23:03;;;;;;;0.38;0.35;;;;;;;;;;5046079;28;20408;-60
2021/10/04 11:25:30;;;;;;;0.57;0.50;;;;;;;;;;5039005;28;20029;-59
2021/10/04 11:27:56;;;;;;;0.30;0.30;;;;;;;;;;5026425;28;20021;-60
2021/10/04 11:30:23;;;;;;;0.30;0.30;;;;;;;;;;5026361;28;20076;-59
2021/10/04 11:33:08;;;;;;;0.50;0.50;;;;;;;;;;5038808;28;20086;-60
2021/10/04 11:35:34;;;;;;;0.30;0.30;;;;;;;;;;5046382;28;20167;-60
2021/10/04 11:38:09;;;;;;;0.30;0.30;;;;;;;;;;5046511;28;20504;-60
2021/10/04 11:40:35;;;;;;;0.32;0.32;;;;;;;;;;5046159;28;20044;-59
2021/10/04 11:43:03;;;;;;;0.32;0.32;;;;;;;;;;5041752;28;20041;-60
2021/10/04 11:45:29;;;;;;;0.30;0.30;;;;;;;;;;5046411;28;20028;-60
2021/10/04 11:47:55;;;;;;;0.40;0.40;;;;;;;;;;5046493;28;20099;-60
2021/10/04 11:50:22;;;;;;;0.30;0.30;;;;;;;;;;5038102;28;20073;-60
2021/10/04 11:52:50;;;;;;;0.35;0.35;;;;;;;;;;5036903;28;20029;-59
2021/10/04 11:55:16;;;;;;;0.32;0.32;;;;;;;;;;5055974;28;20025;-60
2021/10/04 11:57:42;;;;;;;0.52;0.52;;;;;;;;;;5031684;28;20029;-59
2021/10/04 12:00:10;;;;;;;0.40;0.40;;;;;;;;;;5041940;28;20474;-59
2021/10/04 12:02:37;;;;;;;0.32;0.32;;;;;;;;;;5038402;28;20438;-59
2021/10/04 12:05:14;;;;;;;0.65;0.65;;;;;;;;;;5029839;28;20029;-59
2021/10/04 12:07:59;;;;;;;0.38;0.38;;;;;;;;;;5030778;28;20034;-59
2021/10/04 12:10:46;;;;;;;0.47;0.47;;;;;;;;;;5031002;28;20060;-59
2021/10/04 12:13:14;;;;;;;0.40;0.40;;;;;;;;;;5047598;28;20082;-60
2021/10/04 12:15:41;;;;;;;0.52;0.40;;;;;;;;;;5030802;28;20500;-59
2021/10/04 12:18:12;;;;;;;0.40;0.40;;;;;;;;;;5030765;28;20033;-59
2021/10/04 12:20:38;;;;;;;0.43;0.40;;;;;;;;;;5030646;28;20029;-60
2021/10/04 12:23:18;;;;;;;0.50;0.50;;;;;;;;;;5050718;28;20379;-60
2021/10/04 12:25:44;;;;;;;0.50;0.50;;;;;;;;;;5050885;28;20435;-59
2021/10/04 12:28:15;;;;;;;0.73;0.60;;;;;;;;;;5050126;28;20017;-60
2021/10/04 12:30:44;;;;;;;0.50;0.50;;;;;;;;;;5050251;28;20392;-59
2021/10/04 12:33:10;;;;;;;0.50;0.40;;;;;;;;;;5050484;28;20029;-59
2021/10/04 12:35:36;;;;;;;0.40;0.40;;;;;;;;;;5033754;28;20361;-59
2021/10/04 12:38:06;;;;;;;0.65;0.52;;;;;;;;;;5030541;28;20092;-60
2021/10/04 12:40:39;;;;;;;0.63;0.60;;;;;;;;;;5031414;28;20567;-60
2021/10/04 12:43:25;;;;;;;0.32;0.32;;;;;;;;;;5030507;28;20037;-59
2021/10/04 12:46:02;;;;;;;0.70;0.50;;;;;;;;;;5044878;28;20044;-59
2021/10/04 12:48:29;;;;;;;0.50;0.50;;;;;;;;;;5031474;28;20058;-59
2021/10/04 12:51:12;;;;;;;0.50;0.50;;;;;;;;;;5041594;28;20429;-59
2021/10/04 12:53:48;;;;;;;0.50;0.50;;;;;;;;;;5045325;28;20560;-60
2021/10/04 12:56:19;;;;;;;0.47;0.47;;;;;;;;;;5032335;28;20029;-59
2021/10/04 12:58:58;;;;;;;0.95;0.50;;;;;;;;;;5049020;28;20507;-59
2021/10/04 13:01:24;;;;;;;0.63;0.47;;;;;;;;;;5040591;28;20408;-59
2021/10/04 13:03:51;;;;;;;0.75;0.50;;;;;;;;;;5038478;28;20370;-59
2021/10/04 13:06:17;;;;;;;0.50;0.50;;;;;;;;;;5047117;28;20076;-59
2021/10/04 13:08:43;;;;;;;0.50;0.50;;;;;;;;;;5033769;28;20029;-59
2021/10/04 13:11:09;;;;;;;0.57;0.40;;;;;;;;;;5037036;28;20391;-59
2021/10/04 13:13:35;;;;;;;0.55;0.40;;;;;;;;;;5032423;28;20029;-60
2021/10/04 13:16:09;;;;;;;0.60;0.60;;;;;;;;;;5029213;28;20029;-59
2021/10/04 13:18:35;;;;;;;0.60;0.52;;;;;;;;;;5037785;28;20056;-60
2021/10/04 13:21:01;;;;;;;0.63;0.50;;;;;;;;;;5041714;28;20028;-60
2021/10/04 13:23:27;;;;;;;0.40;0.40;;;;;;;;;;5054572;28;20045;-60
2021/10/04 13:25:55;;;;;;;0.65;0.60;;;;;;;;;;5039113;28;20046;-60
2021/10/04 13:28:21;;;;;;;1.60;0.50;;;;;;;;;;5032669;28;20029;-59
2021/10/04 13:30:47;;;;;;;1.58;1.05;;;;;;;;;;5049959;28;20816;-60
2021/10/04 13:33:14;;;;;;;0.80;0.80;;;;;;;;;;5041107;28;20084;-59
2021/10/04 13:35:40;;;;;;;0.82;0.80;;;;;;;;;;5032262;28;20152;-59
2021/10/04 13:38:06;;;;;;;0.40;0.40;;;;;;;;;;5036154;28;20408;-60
2021/10/04 13:40:33;;;;;;;0.70;0.70;;;;;;;;;;5035962;28;20488;-61
2021/10/04 13:43:00;;;;;;;0.57;0.50;;;;;;;;;;5039179;28;20396;-60
2021/10/04 13:45:26;;;;;;;0.50;0.50;;;;;;;;;;5047785;28;20072;-60
2021/10/04 13:47:52;;;;;;;0.60;0.50;;;;;;;;;;5035812;28;20167;-60
2021/10/04 13:50:20;;;;;;;0.40;0.40;;;;;;;;;;5030745;28;20052;-60
2021/10/04 13:52:47;;;;;;;0.47;0.47;;;;;;;;;;5038884;28;20021;-60
2021/10/04 13:55:13;;;;;;;0.45;0.43;;;;;;;;;;5029655;28;20030;-60
2021/10/04 13:57:40;;;;;;;0.50;0.50;;;;;;;;;;5034395;28;20041;-60
2021/10/04 14:00:07;;;;;;;0.63;0.43;;;;;;;;;;5040658;28;20024;-59
2021/10/04 14:02:34;;;;;;;0.52;0.52;;;;;;;;;;5037071;28;20033;-60
2021/10/04 14:05:00;;;;;;;0.40;0.40;;;;;;;;;;5027669;28;20029;-60
2021/10/04 14:07:26;;;;;;;0.40;0.40;;;;;;;;;;5038810;28;20120;-58
2021/10/04 14:09:52;;;;;;;0.50;0.50;;;;;;;;;;5042095;28;20024;-59
2021/10/04 14:12:19;;;;;;;0.52;0.50;;;;;;;;;;5035907;28;20056;-59
2021/10/04 14:14:45;;;;;;;0.47;0.47;;;;;;;;;;5029136;28;20455;-59
2021/10/04 14:17:11;;;;;;;0.60;0.60;;;;;;;;;;5027699;28;20183;-59
2021/10/04 14:19:37;;;;;;;0.30;0.30;;;;;;;;;;5037223;28;20056;-59
2021/10/04 14:22:04;;;;;;;0.57;0.50;;;;;;;;;;5047546;28;20064;-58
2021/10/04 14:24:30;;;;;;;0.88;0.50;;;;;;;;;;5032939;28;20032;-59
2021/10/04 14:26:56;;;;;;;0.50;0.30;;;;;;;;;;5026628;28;20034;-58
2021/10/04 14:29:22;;;;;;;0.60;0.57;;;;;;;;;;5029849;28;20032;-59
2021/10/04 14:31:48;;;;;;;0.63;0.40;;;;;;;;;;5046920;28;20588;-58
2021/10/04 14:34:14;;;;;;;1.48;0.50;;;;;;;;;;5047478;28;20064;-58
2021/10/04 14:36:40;;;;;;;0.73;0.45;;;;;;;;;;5047066;28;20087;-58
2021/10/04 14:39:06;;;;;;;0.52;0.52;;;;;;;;;;5046780;28;20083;-58
2021/10/04 14:41:32;;;;;;;0.40;0.40;;;;;;;;;;5026632;28;20576;-58
2021/10/04 14:43:58;;;;;;;0.60;0.55;;;;;;;;;;5026824;28;20030;-58